Time;durP1;ratioP1;P1;durP2;ratioP2;P2;SDS_P1;SDS_P2;PMS_P1;PMS_P2;Temp;Humidity;BMP_temperature;BMP_pressure;BME280_temperature;BME280_humidity;BME280_pressure;Samples;Min_cycle;Max_cycle;Signal;HPM_P1;HPM_P2
2023/04/19 00:00:56;;;;;;;;;;;9.70;82.10;;;;;;4929538;29;19914;-73
2023/04/19 00:03:24;;;;;;;;;;;9.70;84.90;;;;;;4935392;29;19910;-72
2023/04/19 00:05:53;;;;;;;;;;;9.70;84.70;;;;;;4927663;29;19915;-72
2023/04/19 00:08:18;;;;;;;;;;;9.70;83.80;;;;;;4928519;29;20021;-72
2023/04/19 00:10:44;;;;;;;;;;;9.50;84.50;;;;;;4934717;29;19961;-72
2023/04/19 00:13:10;;;;;;;;;;;9.50;84.80;;;;;;4947628;29;19981;-73
2023/04/19 00:15:36;;;;;;;;;;;9.50;86.70;;;;;;4955785;29;19953;-72
2023/04/19 00:18:02;;;;;;;;;;;9.60;85.60;;;;;;4950577;29;19914;-73
2023/04/19 00:20:28;;;;;;;;;;;9.50;87.00;;;;;;4912171;29;19940;-73
2023/04/19 00:22:53;;;;;;;;;;;9.50;87.20;;;;;;4944223;29;19923;-73
2023/04/19 00:25:19;;;;;;;;;;;9.40;86.70;;;;;;4943448;29;19914;-72
2023/04/19 00:27:44;;;;;;;;;;;9.30;87.10;;;;;;4942556;29;19914;-72
2023/04/19 00:30:10;;;;;;;;;;;9.20;87.70;;;;;;4943747;29;20383;-73
2023/04/19 00:32:36;;;;;;;;;;;9.20;87.70;;;;;;4942502;29;19997;-73
2023/04/19 00:35:02;;;;;;;;;;;9.10;88.60;;;;;;4928112;29;19922;-73
2023/04/19 00:37:28;;;;;;;;;;;9.20;89.00;;;;;;4934445;29;19922;-72
2023/04/19 00:39:54;;;;;;;;;;;9.10;88.80;;;;;;4943928;29;19915;-72
2023/04/19 00:42:19;;;;;;;;;;;9.00;89.30;;;;;;4950275;29;19990;-73
2023/04/19 00:44:45;;;;;;;;;;;9.00;90.00;;;;;;4905899;29;19925;-73
2023/04/19 00:47:11;;;;;;;;;;;9.00;90.20;;;;;;4933547;29;19973;-73
2023/04/19 00:49:36;;;;;;;;;;;9.00;90.10;;;;;;4927144;29;19919;-72
2023/04/19 00:52:05;;;;;;;;;;;8.90;90.40;;;;;;4942343;29;19915;-72
2023/04/19 00:54:31;;;;;;;;;;;8.80;90.70;;;;;;4937537;29;20361;-73
2023/04/19 00:56:57;;;;;;;;;;;8.60;91.10;;;;;;4923860;29;20005;-72
2023/04/19 00:59:23;;;;;;;;;;;8.60;91.50;;;;;;4948195;28;20022;-73
2023/04/19 01:01:49;;;;;;;;;;;8.60;91.70;;;;;;4947352;29;19914;-72
2023/04/19 01:04:15;;;;;;;;;;;8.50;91.60;;;;;;4913211;29;19925;-73
2023/04/19 01:06:41;;;;;;;;;;;8.30;92.10;;;;;;4931456;29;20099;-72
2023/04/19 01:09:08;;;;;;;;;;;8.30;92.10;;;;;;4940798;29;20002;-73
2023/04/19 01:11:33;;;;;;;;;;;8.30;92.30;;;;;;4927579;28;19911;-72
2023/04/19 01:13:59;;;;;;;;;;;8.30;92.60;;;;;;4927474;29;19918;-73
2023/04/19 01:16:25;;;;;;;;;;;8.30;92.70;;;;;;4933773;29;20284;-73
2023/04/19 01:18:52;;;;;;;;;;;8.30;92.90;;;;;;4922286;29;19997;-75
2023/04/19 01:21:18;;;;;;;;;;;8.30;92.90;;;;;;4924974;29;20001;-75
2023/04/19 01:23:44;;;;;;;;;;;8.20;93.10;;;;;;4933527;29;19918;-75
2023/04/19 01:26:10;;;;;;;;;;;8.20;93.40;;;;;;4944093;28;19925;-75
2023/04/19 01:28:36;;;;;;;;;;;8.20;93.70;;;;;;4941408;29;20000;-75
2023/04/19 01:31:01;;;;;;;;;;;8.10;93.70;;;;;;4932631;29;20320;-76
2023/04/19 01:33:27;;;;;;;;;;;8.10;93.70;;;;;;4955240;28;19918;-75
2023/04/19 01:35:52;;;;;;;;;;;8.00;94.00;;;;;;4929041;29;20259;-75
2023/04/19 01:38:18;;;;;;;;;;;7.90;94.50;;;;;;4912385;29;19914;-75
2023/04/19 01:40:44;;;;;;;;;;;7.90;94.50;;;;;;4935994;29;20001;-75
2023/04/19 01:43:14;;;;;;;;;;;7.90;94.60;;;;;;4946919;29;20610;-75
2023/04/19 01:45:40;;;;;;;;;;;7.80;95.00;;;;;;4915936;29;19930;-75
2023/04/19 01:48:06;;;;;;;;;;;7.80;95.10;;;;;;4933788;29;20016;-75
2023/04/19 01:50:31;;;;;;;;;;;7.70;95.30;;;;;;4936650;29;20586;-75
2023/04/19 01:52:57;;;;;;;;;;;7.70;95.20;;;;;;4941082;29;19914;-75
2023/04/19 01:55:23;;;;;;;;;;;7.70;95.50;;;;;;4948721;28;19915;-75
2023/04/19 01:57:48;;;;;;;;;;;7.60;95.80;;;;;;4952156;29;19915;-75
2023/04/19 02:00:16;;;;;;;;;;;7.50;96.00;;;;;;4933638;29;19919;-74
2023/04/19 02:02:42;;;;;;;;;;;7.50;96.10;;;;;;4935689;29;20364;-75
2023/04/19 02:05:08;;;;;;;;;;;7.40;96.30;;;;;;4955224;29;19914;-75
2023/04/19 02:07:33;;;;;;;;;;;7.40;96.50;;;;;;4943388;29;19945;-75
2023/04/19 02:09:59;;;;;;;;;;;7.40;96.70;;;;;;4933376;29;19918;-74
2023/04/19 02:12:27;;;;;;;;;;;7.40;96.70;;;;;;4942603;29;19918;-75
2023/04/19 02:14:56;;;;;;;;;;;7.30;97.00;;;;;;4921521;29;19961;-74
2023/04/19 02:17:22;;;;;;;;;;;7.20;97.20;;;;;;4949390;28;19918;-75
2023/04/19 02:19:48;;;;;;;;;;;7.20;97.60;;;;;;4941120;28;19911;-75
2023/04/19 02:22:13;;;;;;;;;;;7.10;97.80;;;;;;4922605;29;19926;-74
2023/04/19 02:24:39;;;;;;;;;;;7.20;98.00;;;;;;4921528;29;19915;-74
2023/04/19 02:27:05;;;;;;;;;;;7.20;97.80;;;;;;4940112;29;19941;-74
2023/04/19 02:29:31;;;;;;;;;;;7.10;98.00;;;;;;4949914;29;19936;-74
2023/04/19 02:31:57;;;;;;;;;;;7.10;98.00;;;;;;4955531;28;19914;-74
2023/04/19 02:34:22;;;;;;;;;;;7.20;97.90;;;;;;4945587;28;20323;-76
2023/04/19 02:36:48;;;;;;;;;;;7.10;98.10;;;;;;4953142;29;19925;-73
2023/04/19 02:39:14;;;;;;;;;;;7.10;98.20;;;;;;4948303;29;20304;-75
2023/04/19 02:41:40;;;;;;;;;;;7.10;98.20;;;;;;4938474;28;20317;-75
2023/04/19 02:44:05;;;;;;;;;;;7.10;98.40;;;;;;4943419;29;20312;-74
2023/04/19 02:46:31;;;;;;;;;;;7.10;98.50;;;;;;4914725;29;19929;-75
2023/04/19 02:48:59;;;;;;;;;;;7.00;98.60;;;;;;4937894;29;19914;-75
2023/04/19 02:51:25;;;;;;;;;;;7.00;98.50;;;;;;4949387;29;19954;-76
2023/04/19 02:53:51;;;;;;;;;;;7.00;98.70;;;;;;4930470;29;19929;-76
2023/04/19 02:56:17;;;;;;;;;;;6.90;98.80;;;;;;4922194;29;19910;-75
2023/04/19 02:58:43;;;;;;;;;;;6.80;99.50;;;;;;4926410;29;19911;-75
2023/04/19 03:01:09;;;;;;;;;;;6.80;99.10;;;;;;4916280;29;19917;-76
2023/04/19 03:03:34;;;;;;;;;;;6.80;99.50;;;;;;4937028;29;19917;-75
2023/04/19 03:06:00;;;;;;;;;;;6.80;99.60;;;;;;4915287;29;20013;-76
2023/04/19 03:08:26;;;;;;;;;;;6.80;99.70;;;;;;4935907;29;19954;-75
2023/04/19 03:10:51;;;;;;;;;;;6.80;99.70;;;;;;4935527;29;20264;-75
2023/04/19 03:13:17;;;;;;;;;;;6.80;99.80;;;;;;4942188;29;20388;-75
2023/04/19 03:15:43;;;;;;;;;;;6.70;99.80;;;;;;4936590;29;19985;-75
2023/04/19 03:18:08;;;;;;;;;;;6.60;99.90;;;;;;4933574;29;19914;-75
2023/04/19 03:20:34;;;;;;;;;;;6.70;99.90;;;;;;4943645;28;19936;-75
2023/04/19 03:23:00;;;;;;;;;;;6.60;99.90;;;;;;4933693;29;20010;-75
2023/04/19 03:25:25;;;;;;;;;;;6.60;99.90;;;;;;4923809;29;19918;-74
2023/04/19 03:27:51;;;;;;;;;;;6.60;99.90;;;;;;4926196;29;20997;-74
2023/04/19 03:30:17;;;;;;;;;;;6.70;99.90;;;;;;4932199;29;20370;-74
2023/04/19 03:32:42;;;;;;;;;;;6.70;99.90;;;;;;4943144;29;19946;-74
2023/04/19 03:35:08;;;;;;;;;;;6.60;99.90;;;;;;4931079;29;19957;-74
2023/04/19 03:37:34;;;;;;;;;;;6.60;99.90;;;;;;4954947;29;20001;-74
2023/04/19 03:40:00;;;;;;;;;;;6.50;99.90;;;;;;4941108;29;19977;-74
2023/04/19 03:42:26;;;;;;;;;;;6.40;99.90;;;;;;4923156;29;20304;-74
2023/04/19 03:44:51;;;;;;;;;;;6.50;99.90;;;;;;4946556;29;20324;-74
2023/04/19 03:47:17;;;;;;;;;;;6.40;99.90;;;;;;4915390;29;19914;-74
2023/04/19 03:49:43;;;;;;;;;;;6.40;99.90;;;;;;4941160;29;19925;-74
2023/04/19 03:52:09;;;;;;;;;;;6.40;99.90;;;;;;4927016;29;19918;-74
2023/04/19 03:54:34;;;;;;;;;;;6.30;99.90;;;;;;4938678;29;19922;-74
2023/04/19 03:57:01;;;;;;;;;;;6.30;99.90;;;;;;4936998;29;19949;-74
2023/04/19 03:59:27;;;;;;;;;;;6.30;99.90;;;;;;4923522;29;19918;-74
2023/04/19 04:01:52;;;;;;;;;;;6.30;99.90;;;;;;4928219;29;20300;-75
2023/04/19 04:04:18;;;;;;;;;;;6.30;99.90;;;;;;4937431;29;19961;-75
2023/04/19 04:06:44;;;;;;;;;;;6.20;99.90;;;;;;4937239;29;20291;-75
2023/04/19 04:09:10;;;;;;;;;;;6.20;99.90;;;;;;4918544;29;19918;-74
2023/04/19 04:11:35;;;;;;;;;;;6.20;99.90;;;;;;4937203;29;19914;-74
2023/04/19 04:14:01;;;;;;;;;;;6.20;99.90;;;;;;4947505;29;19921;-75
2023/04/19 04:16:27;;;;;;;;;;;6.20;99.90;;;;;;4930596;29;19926;-74
2023/04/19 04:18:52;;;;;;;;;;;6.10;99.90;;;;;;4898139;29;20312;-74
2023/04/19 04:21:18;;;;;;;;;;;6.00;99.90;;;;;;4917294;29;19975;-74
2023/04/19 04:23:44;;;;;;;;;;;6.00;99.90;;;;;;4946977;29;19914;-75
2023/04/19 04:26:09;;;;;;;;;;;6.00;99.90;;;;;;4930358;28;20276;-75
2023/04/19 04:28:35;;;;;;;;;;;6.00;99.90;;;;;;4942576;29;19993;-74
2023/04/19 04:31:01;;;;;;;;;;;6.00;99.90;;;;;;4945384;29;19926;-74
2023/04/19 04:33:26;;;;;;;;;;;6.00;99.90;;;;;;4941843;29;20251;-74
2023/04/19 04:35:53;;;;;;;;;;;6.00;99.90;;;;;;4951420;29;19911;-74
2023/04/19 04:38:19;;;;;;;;;;;6.00;99.90;;;;;;4944678;29;19921;-74
2023/04/19 04:40:56;;;;;;;;;;;6.00;99.90;;;;;;4931934;29;19917;-74
2023/04/19 04:43:22;;;;;;;;;;;6.00;99.90;;;;;;4938826;29;20264;-74
2023/04/19 04:45:48;;;;;;;;;;;6.00;99.90;;;;;;4943735;29;19953;-75
2023/04/19 04:48:13;;;;;;;;;;;6.00;99.90;;;;;;4952425;29;20272;-74
2023/04/19 04:50:39;;;;;;;;;;;6.00;99.90;;;;;;4944719;29;20238;-74
2023/04/19 04:53:05;;;;;;;;;;;6.10;99.90;;;;;;4923374;29;19914;-74
2023/04/19 04:55:31;;;;;;;;;;;6.10;99.90;;;;;;4950003;29;19978;-74
2023/04/19 04:57:56;;;;;;;;;;;6.10;99.90;;;;;;4949164;29;19914;-74
2023/04/19 05:00:22;;;;;;;;;;;6.10;99.90;;;;;;4946830;29;19937;-75
2023/04/19 05:02:48;;;;;;;;;;;6.10;99.90;;;;;;4917759;29;19921;-75
2023/04/19 05:05:13;;;;;;;;;;;6.20;99.90;;;;;;4928560;29;19930;-74
2023/04/19 05:07:39;;;;;;;;;;;6.20;99.90;;;;;;4922287;29;19911;-74
2023/04/19 05:10:05;;;;;;;;;;;6.20;99.90;;;;;;4943221;28;19965;-74
2023/04/19 05:12:31;;;;;;;;;;;6.20;99.90;;;;;;4934534;29;19948;-74
2023/04/19 05:14:57;;;;;;;;;;;6.20;99.90;;;;;;4930626;29;20001;-74
2023/04/19 05:17:22;;;;;;;;;;;6.30;99.90;;;;;;4924045;29;19962;-74
2023/04/19 05:19:48;;;;;;;;;;;6.30;99.90;;;;;;4941413;29;19910;-74
2023/04/19 05:22:14;;;;;;;;;;;6.30;99.90;;;;;;4955786;28;19928;-75
2023/04/19 05:24:40;;;;;;;;;;;6.40;99.90;;;;;;4948032;29;19915;-74
2023/04/19 05:27:06;;;;;;;;;;;6.40;99.90;;;;;;4943852;29;19925;-74
2023/04/19 05:29:31;;;;;;;;;;;6.40;99.90;;;;;;4937226;29;20009;-74
2023/04/19 05:31:57;;;;;;;;;;;6.50;99.90;;;;;;4928478;29;19915;-74
2023/04/19 05:34:23;;;;;;;;;;;6.50;99.90;;;;;;4954271;29;19920;-77
2023/04/19 05:36:49;;;;;;;;;;;6.50;99.90;;;;;;4933967;29;19914;-75
2023/04/19 05:39:15;;;;;;;;;;;6.50;99.90;;;;;;4908034;29;19921;-75
2023/04/19 05:41:41;;;;;;;;;;;6.50;99.90;;;;;;4950162;29;20001;-75
2023/04/19 05:44:07;;;;;;;;;;;6.60;99.90;;;;;;4940587;29;20006;-75
2023/04/19 05:46:32;;;;;;;;;;;6.70;99.90;;;;;;4943358;29;19914;-75
2023/04/19 05:48:58;;;;;;;;;;;6.60;99.90;;;;;;4921601;29;19973;-74
2023/04/19 05:51:24;;;;;;;;;;;6.70;99.90;;;;;;4932852;29;19973;-74
2023/04/19 05:53:50;;;;;;;;;;;6.70;99.90;;;;;;4949528;29;19914;-74
2023/04/19 05:56:16;;;;;;;;;;;6.70;99.90;;;;;;4928929;29;20001;-74
2023/04/19 05:58:41;;;;;;;;;;;6.60;99.90;;;;;;4928136;29;20013;-74
2023/04/19 06:01:07;;;;;;;;;;;6.70;99.90;;;;;;4937346;29;19914;-74
2023/04/19 06:03:33;;;;;;;;;;;6.70;99.90;;;;;;4949605;28;20441;-74
2023/04/19 06:05:58;;;;;;;;;;;6.80;99.90;;;;;;4930368;29;20002;-74
2023/04/19 06:08:24;;;;;;;;;;;6.80;99.90;;;;;;4920710;29;20248;-74
2023/04/19 06:10:50;;;;;;;;;;;6.80;99.90;;;;;;4943099;29;19918;-74
2023/04/19 06:13:15;;;;;;;;;;;6.80;99.90;;;;;;4932755;29;20219;-74
2023/04/19 06:15:42;;;;;;;;;;;6.80;99.90;;;;;;4942043;29;19966;-75
2023/04/19 06:18:10;;;;;;;;;;;6.80;99.90;;;;;;4930715;29;20252;-75
2023/04/19 06:20:36;;;;;;;;;;;6.90;99.90;;;;;;4933494;29;20255;-75
2023/04/19 06:23:02;;;;;;;;;;;6.80;99.90;;;;;;4947218;28;19910;-75
2023/04/19 06:25:27;;;;;;;;;;;6.80;99.90;;;;;;4927203;29;19911;-75
2023/04/19 06:27:53;;;;;;;;;;;6.80;99.90;;;;;;4926391;29;19925;-74
2023/04/19 06:30:19;;;;;;;;;;;6.90;99.90;;;;;;4942353;29;19919;-75
2023/04/19 06:32:44;;;;;;;;;;;7.00;99.90;;;;;;4936509;29;19921;-74
2023/04/19 06:35:10;;;;;;;;;;;7.00;99.90;;;;;;4942068;29;19925;-74
2023/04/19 06:37:36;;;;;;;;;;;7.10;99.90;;;;;;4915868;29;20240;-74
2023/04/19 06:40:03;;;;;;;;;;;7.10;99.90;;;;;;4928178;29;19919;-75
2023/04/19 06:42:29;;;;;;;;;;;7.20;99.90;;;;;;4925647;29;19921;-74
2023/04/19 06:44:56;;;;;;;;;;;7.20;99.90;;;;;;4938876;29;20000;-74
2023/04/19 06:47:21;;;;;;;;;;;7.30;99.90;;;;;;4926378;29;20341;-74
2023/04/19 06:49:47;;;;;;;;;;;7.40;99.90;;;;;;4924288;29;19915;-74
2023/04/19 06:52:13;;;;;;;;;;;7.40;99.90;;;;;;4926375;29;20240;-74
2023/04/19 06:54:38;;;;;;;;;;;7.40;99.90;;;;;;4946631;28;19950;-75
2023/04/19 06:57:04;;;;;;;;;;;7.50;99.90;;;;;;4944513;29;20330;-75
2023/04/19 06:59:31;;;;;;;;;;;7.50;99.90;;;;;;4949070;29;19910;-75
2023/04/19 07:01:57;;;;;;;;;;;7.60;99.90;;;;;;4947728;29;19949;-75
2023/04/19 07:04:23;;;;;;;;;;;7.50;99.90;;;;;;4933904;29;19918;-74
2023/04/19 07:06:51;;;;;;;;;;;7.60;99.90;;;;;;4930849;29;19926;-75
2023/04/19 07:09:17;;;;;;;;;;;7.60;99.90;;;;;;4916240;29;19914;-75
2023/04/19 07:11:43;;;;;;;;;;;7.70;99.90;;;;;;4924290;29;19915;-74
2023/04/19 07:14:08;;;;;;;;;;;7.70;99.90;;;;;;4934737;29;19921;-75
2023/04/19 07:16:34;;;;;;;;;;;7.80;99.90;;;;;;4926999;29;20445;-75
2023/04/19 07:19:00;;;;;;;;;;;7.80;99.90;;;;;;4935589;29;20417;-75
2023/04/19 07:21:27;;;;;;;;;;;7.90;99.90;;;;;;4945255;28;19922;-75
2023/04/19 07:23:53;;;;;;;;;;;8.00;99.90;;;;;;4941003;29;20236;-75
2023/04/19 07:26:19;;;;;;;;;;;8.00;99.90;;;;;;4933489;29;19929;-74
2023/04/19 07:28:46;;;;;;;;;;;8.10;99.70;;;;;;4944553;29;19914;-74
2023/04/19 07:31:16;;;;;;;;;;;8.10;99.90;;;;;;4929083;29;19922;-75
2023/04/19 07:33:42;;;;;;;;;;;8.20;99.90;;;;;;4947341;29;20434;-75
2023/04/19 07:36:07;;;;;;;;;;;8.20;99.20;;;;;;4932771;29;19915;-75
2023/04/19 07:38:33;;;;;;;;;;;8.20;99.20;;;;;;4928948;29;19914;-74
2023/04/19 07:40:59;;;;;;;;;;;8.30;99.70;;;;;;4942340;29;20265;-74
2023/04/19 07:43:25;;;;;;;;;;;8.30;99.30;;;;;;4931937;29;20601;-75
2023/04/19 07:45:51;;;;;;;;;;;8.40;99.60;;;;;;4947911;28;20232;-75
2023/04/19 07:48:17;;;;;;;;;;;8.50;99.40;;;;;;4941641;29;19915;-76
2023/04/19 07:50:42;;;;;;;;;;;8.60;99.90;;;;;;4949365;28;20030;-76
2023/04/19 07:53:08;;;;;;;;;;;8.70;99.90;;;;;;4931479;29;19915;-77
2023/04/19 07:55:34;;;;;;;;;;;8.90;99.90;;;;;;4932057;29;19978;-77
2023/04/19 07:58:01;;;;;;;;;;;9.10;99.90;;;;;;4924619;29;19915;-77
2023/04/19 08:00:28;;;;;;;;;;;9.20;99.90;;;;;;4949369;29;19914;-77
2023/04/19 08:02:55;;;;;;;;;;;9.30;99.90;;;;;;4939109;28;19911;-77
2023/04/19 08:05:21;;;;;;;;;;;9.40;99.90;;;;;;4954108;29;20542;-77
2023/04/19 08:07:50;;;;;;;;;;;9.60;98.40;;;;;;4937178;29;20358;-77
2023/04/19 08:10:16;;;;;;;;;;;9.70;97.00;;;;;;4933354;29;19923;-77
2023/04/19 08:12:42;;;;;;;;;;;9.70;97.90;;;;;;4919062;29;20250;-77
2023/04/19 08:15:08;;;;;;;;;;;9.80;98.30;;;;;;4946740;29;19920;-76
2023/04/19 08:17:33;;;;;;;;;;;9.90;97.80;;;;;;4944079;28;20009;-76
2023/04/19 08:19:59;;;;;;;;;;;10.10;97.00;;;;;;4933781;29;19922;-76
2023/04/19 08:22:25;;;;;;;;;;;10.30;96.40;;;;;;4956034;28;19914;-76
2023/04/19 08:24:51;;;;;;;;;;;10.30;95.40;;;;;;4941110;29;20661;-76
2023/04/19 08:27:17;;;;;;;;;;;10.40;95.50;;;;;;4936355;29;19957;-76
2023/04/19 08:29:43;;;;;;;;;;;10.50;94.90;;;;;;4943672;29;19923;-77
2023/04/19 08:32:09;;;;;;;;;;;10.70;92.20;;;;;;4930575;29;19965;-76
2023/04/19 08:34:35;;;;;;;;;;;10.70;91.10;;;;;;4937264;29;20328;-76
2023/04/19 08:37:02;;;;;;;;;;;10.80;91.90;;;;;;4922640;29;20374;-77
2023/04/19 08:39:28;;;;;;;;;;;10.90;90.20;;;;;;4935131;29;19910;-77
2023/04/19 08:41:55;;;;;;;;;;;11.00;90.40;;;;;;4948247;29;19910;-76
2023/04/19 08:44:20;;;;;;;;;;;11.20;90.10;;;;;;4951549;29;19911;-77
2023/04/19 08:46:46;;;;;;;;;;;11.30;90.30;;;;;;4943890;29;20309;-77
2023/04/19 08:49:12;;;;;;;;;;;11.40;88.70;;;;;;4930594;29;19921;-77
2023/04/19 08:51:38;;;;;;;;;;;11.50;82.80;;;;;;4951853;29;20598;-77
2023/04/19 08:54:06;;;;;;;;;;;11.60;84.30;;;;;;4913294;29;19910;-76
2023/04/19 08:56:32;;;;;;;;;;;11.80;86.00;;;;;;4935767;29;19922;-77
2023/04/19 08:58:57;;;;;;;;;;;11.90;79.30;;;;;;4927178;29;19934;-77
2023/04/19 09:01:23;;;;;;;;;;;11.90;78.80;;;;;;4958205;29;19910;-77
2023/04/19 09:03:49;;;;;;;;;;;12.00;77.20;;;;;;4946501;29;19976;-77
2023/04/19 09:06:15;;;;;;;;;;;12.00;77.50;;;;;;4915549;29;20455;-77
2023/04/19 09:08:41;;;;;;;;;;;12.10;76.80;;;;;;4935142;29;19934;-77
2023/04/19 09:11:07;;;;;;;;;;;12.20;72.80;;;;;;4950572;28;19914;-77
2023/04/19 09:13:35;;;;;;;;;;;12.20;75.20;;;;;;4935953;28;19923;-77
2023/04/19 09:16:01;;;;;;;;;;;12.30;73.40;;;;;;4946113;29;19915;-77
2023/04/19 09:18:28;;;;;;;;;;;12.30;70.20;;;;;;4935371;29;19911;-77
2023/04/19 09:20:56;;;;;;;;;;;12.30;71.90;;;;;;4938991;29;20224;-77
2023/04/19 09:23:24;;;;;;;;;;;12.30;70.30;;;;;;4936758;29;19929;-77
2023/04/19 09:26:00;;;;;;;;;;;12.30;70.10;;;;;;4948406;29;20582;-77
2023/04/19 09:28:26;;;;;;;;;;;12.40;69.10;;;;;;4916623;29;19954;-77
2023/04/19 09:30:51;;;;;;;;;;;12.40;71.30;;;;;;4936571;29;19961;-77
2023/04/19 09:33:33;;;;;;;;;;;12.40;70.30;;;;;;4948347;29;19914;-76
2023/04/19 09:35:58;;;;;;;;;;;12.40;71.50;;;;;;4953174;29;19952;-77
2023/04/19 09:38:24;;;;;;;;;;;12.40;71.40;;;;;;4920569;29;19950;-77
2023/04/19 09:40:50;;;;;;;;;;;12.40;70.70;;;;;;4945500;28;19910;-76
2023/04/19 09:43:24;;;;;;;;;;;12.50;69.60;;;;;;4934297;29;19911;-77
2023/04/19 09:45:50;;;;;;;;;;;12.50;69.40;;;;;;4933377;29;19914;-77
2023/04/19 09:48:16;;;;;;;;;;;12.50;68.80;;;;;;4925905;29;19910;-76
2023/04/19 09:50:50;;;;;;;;;;;12.60;65.50;;;;;;4919396;29;19919;-77
2023/04/19 09:53:19;;;;;;;;;;;12.60;69.40;;;;;;4920197;29;19911;-76
2023/04/19 09:55:46;;;;;;;;;;;12.70;71.00;;;;;;4941399;29;19975;-76
2023/04/19 09:58:12;;;;;;;;;;;13.10;69.70;;;;;;4946068;29;19914;-77
2023/04/19 10:00:38;;;;;;;;;;;13.20;67.70;;;;;;4932676;29;19934;-76
2023/04/19 10:03:03;;;;;;;;;;;13.30;66.40;;;;;;4932243;29;20325;-76
2023/04/19 10:05:29;;;;;;;;;;;13.40;66.00;;;;;;4951057;28;19911;-76
2023/04/19 10:07:55;;;;;;;;;;;13.50;64.50;;;;;;4919769;29;20317;-77
2023/04/19 10:10:21;;;;;;;;;;;13.50;64.30;;;;;;4931003;29;19970;-76
2023/04/19 10:12:51;;;;;;;;;;;13.60;66.00;;;;;;4948845;29;19919;-77
2023/04/19 10:15:16;;;;;;;;;;;13.80;65.50;;;;;;4914792;29;19970;-77
2023/04/19 10:17:42;;;;;;;;;;;14.10;63.90;;;;;;4943787;29;19911;-76
2023/04/19 10:20:12;;;;;;;;;;;14.20;65.50;;;;;;4926296;29;19965;-77
2023/04/19 10:22:38;;;;;;;;;;;14.40;70.30;;;;;;4945254;29;19914;-76
2023/04/19 10:25:09;;;;;;;;;;;14.60;67.30;;;;;;4933792;29;20029;-77
2023/04/19 10:27:34;;;;;;;;;;;14.80;66.40;;;;;;4930994;29;19910;-76
2023/04/19 10:30:02;;;;;;;;;;;15.00;57.10;;;;;;4920758;29;19998;-77
2023/04/19 10:32:41;;;;;;;;;;;15.10;60.60;;;;;;4925222;29;19925;-76
2023/04/19 10:35:07;;;;;;;;;;;15.20;60.00;;;;;;4930607;29;19917;-76
2023/04/19 10:37:33;;;;;;;;;;;15.30;59.10;;;;;;4924771;29;20017;-76
2023/04/19 10:39:58;;;;;;;;;;;15.40;54.40;;;;;;4924499;29;19914;-76
2023/04/19 10:42:24;;;;;;;;;;;15.50;52.90;;;;;;4947710;29;19915;-76
2023/04/19 10:45:08;;;;;;;;;;;15.50;51.90;;;;;;4947133;29;19922;-76
2023/04/19 10:47:42;;;;;;;;;;;15.60;48.50;;;;;;4914164;29;19922;-77
2023/04/19 10:50:08;;;;;;;;;;;15.60;49.40;;;;;;4947629;29;19914;-76
2023/04/19 10:52:34;;;;;;;;;;;15.60;48.40;;;;;;4940802;29;19911;-77
2023/04/19 10:54:59;;;;;;;;;;;15.70;49.50;;;;;;4930277;29;19942;-76
2023/04/19 10:57:26;;;;;;;;;;;15.90;50.60;;;;;;4917773;29;19941;-76
2023/04/19 11:00:12;;;;;;;;;;;16.00;49.00;;;;;;4917315;29;20015;-76
2023/04/19 11:02:38;;;;;;;;;;;16.10;49.90;;;;;;4929695;29;19969;-76
2023/04/19 11:05:04;;;;;;;;;;;16.10;50.00;;;;;;4924387;29;20336;-77
2023/04/19 11:07:36;;;;;;;;;;;16.20;49.80;;;;;;4923976;29;19977;-76
2023/04/19 11:10:02;;;;;;;;;;;16.20;46.10;;;;;;4939955;29;19942;-77
2023/04/19 11:12:27;;;;;;;;;;;16.10;45.80;;;;;;4936292;29;19927;-76
2023/04/19 11:14:56;;;;;;;;;;;15.80;43.90;;;;;;4933871;29;20048;-76
2023/04/19 11:17:24;;;;;;;;;;;15.90;45.60;;;;;;4916581;29;19915;-77
2023/04/19 11:19:56;;;;;;;;;;;15.80;43.60;;;;;;4941946;28;19915;-76
2023/04/19 11:22:37;;;;;;;;;;;15.70;44.80;;;;;;4936403;29;19914;-76
2023/04/19 11:25:06;;;;;;;;;;;15.40;43.20;;;;;;4930036;29;19922;-76
2023/04/19 11:27:32;;;;;;;;;;;15.70;46.20;;;;;;4934088;29;20384;-76
2023/04/19 11:30:11;;;;;;;;;;;15.80;45.60;;;;;;4932550;29;19919;-76
2023/04/19 11:32:47;;;;;;;;;;;15.70;44.90;;;;;;4920572;29;19949;-76
2023/04/19 11:35:12;;;;;;;;;;;16.00;48.10;;;;;;4923456;29;19911;-76
2023/04/19 11:37:38;;;;;;;;;;;15.60;42.60;;;;;;4929223;29;20006;-76
2023/04/19 11:40:07;;;;;;;;;;;15.70;44.60;;;;;;4951411;28;20013;-76
2023/04/19 11:42:33;;;;;;;;;;;15.90;46.00;;;;;;4953279;29;19964;-76
2023/04/19 11:44:59;;;;;;;;;;;16.10;45.70;;;;;;4958746;28;19911;-76
2023/04/19 11:47:25;;;;;;;;;;;16.20;46.90;;;;;;4932530;29;19925;-76
2023/04/19 11:49:51;;;;;;;;;;;16.30;47.00;;;;;;4936905;29;20336;-76
2023/04/19 11:52:21;;;;;;;;;;;16.30;44.20;;;;;;4910885;29;19911;-76
2023/04/19 11:54:47;;;;;;;;;;;16.40;46.50;;;;;;4935738;29;19911;-75
2023/04/19 11:57:12;;;;;;;;;;;16.50;44.70;;;;;;4934164;29;19942;-76
2023/04/19 11:59:38;;;;;;;;;;;16.50;44.20;;;;;;4935734;29;20217;-75
2023/04/19 12:02:06;;;;;;;;;;;16.30;45.60;;;;;;4944090;29;19918;-76
2023/04/19 12:04:36;;;;;;;;;;;16.50;42.30;;;;;;4938641;29;19926;-76
2023/04/19 12:07:02;;;;;;;;;;;16.60;43.80;;;;;;4932867;29;19919;-75
2023/04/19 12:09:28;;;;;;;;;;;16.50;43.50;;;;;;4938854;29;19918;-77
2023/04/19 12:11:56;;;;;;;;;;;16.50;44.60;;;;;;4912378;29;19918;-76
2023/04/19 12:14:22;;;;;;;;;;;16.40;44.40;;;;;;4958207;28;19922;-75
2023/04/19 12:17:06;;;;;;;;;;;16.30;43.70;;;;;;4933689;29;19910;-75
2023/04/19 12:19:36;;;;;;;;;;;15.80;42.80;;;;;;4937325;29;19915;-75
2023/04/19 12:22:14;;;;;;;;;;;15.80;45.20;;;;;;4957642;28;19949;-76
2023/04/19 12:24:47;;;;;;;;;;;16.10;44.80;;;;;;4941867;29;19989;-75
2023/04/19 12:27:16;;;;;;;;;;;15.90;45.20;;;;;;4943172;29;19911;-75
2023/04/19 12:29:42;;;;;;;;;;;16.00;45.00;;;;;;4917171;29;19980;-76
2023/04/19 12:32:08;;;;;;;;;;;15.60;45.50;;;;;;4957926;29;19952;-76
2023/04/19 12:34:34;;;;;;;;;;;15.50;45.30;;;;;;4929058;29;20001;-76
2023/04/19 12:37:03;;;;;;;;;;;15.30;45.00;;;;;;4936428;29;20013;-76
2023/04/19 12:39:29;;;;;;;;;;;15.40;45.50;;;;;;4941055;29;19950;-76
2023/04/19 12:41:54;;;;;;;;;;;15.80;48.00;;;;;;4921250;29;20007;-76
2023/04/19 12:44:20;;;;;;;;;;;15.70;45.80;;;;;;4934950;29;20227;-76
2023/04/19 12:46:46;;;;;;;;;;;15.70;46.30;;;;;;4931118;29;20320;-76
2023/04/19 12:49:11;;;;;;;;;;;16.10;50.20;;;;;;4919602;29;19993;-75
2023/04/19 12:51:37;;;;;;;;;;;16.30;50.00;;;;;;4928236;29;20392;-76
2023/04/19 12:54:03;;;;;;;;;;;16.60;48.60;;;;;;4924910;29;19914;-76
2023/04/19 12:56:28;;;;;;;;;;;16.90;46.50;;;;;;4920491;29;20475;-76
2023/04/19 12:58:57;;;;;;;;;;;17.10;44.10;;;;;;4915558;29;19915;-75
2023/04/19 13:01:22;;;;;;;;;;;17.20;43.40;;;;;;4946939;29;19970;-76
2023/04/19 13:03:48;;;;;;;;;;;17.40;44.00;;;;;;4937806;29;19975;-75
2023/04/19 13:06:15;;;;;;;;;;;17.70;43.90;;;;;;4923811;29;20779;-75
2023/04/19 13:08:41;;;;;;;;;;;17.90;42.70;;;;;;4911387;29;19911;-75
2023/04/19 13:11:07;;;;;;;;;;;18.00;43.80;;;;;;4934915;29;20009;-75
2023/04/19 13:13:33;;;;;;;;;;;18.40;43.40;;;;;;4907133;29;19927;-75
2023/04/19 13:15:59;;;;;;;;;;;18.10;42.90;;;;;;4941431;29;20305;-74
2023/04/19 13:18:25;;;;;;;;;;;18.20;43.00;;;;;;4935910;29;19926;-74
2023/04/19 13:20:52;;;;;;;;;;;17.10;40.80;;;;;;4934161;29;19919;-74
2023/04/19 13:23:18;;;;;;;;;;;16.60;41.70;;;;;;4912603;29;19915;-74
2023/04/19 13:25:44;;;;;;;;;;;16.60;40.90;;;;;;4903156;29;19971;-74
2023/04/19 13:28:09;;;;;;;;;;;17.00;43.30;;;;;;4912787;29;19925;-75
2023/04/19 13:30:35;;;;;;;;;;;17.30;42.20;;;;;;4925169;29;19919;-74
2023/04/19 13:33:01;;;;;;;;;;;17.20;41.20;;;;;;4921371;29;19919;-75
2023/04/19 13:35:29;;;;;;;;;;;17.10;41.20;;;;;;4926910;29;19914;-75
2023/04/19 13:37:55;;;;;;;;;;;17.10;41.90;;;;;;4915081;29;19918;-74
2023/04/19 13:40:21;;;;;;;;;;;16.50;41.80;;;;;;4940400;29;19911;-74
2023/04/19 13:42:46;;;;;;;;;;;16.30;43.30;;;;;;4918737;29;20305;-74
2023/04/19 13:45:12;;;;;;;;;;;16.00;44.10;;;;;;4923434;29;19915;-74
2023/04/19 13:47:37;;;;;;;;;;;15.80;44.40;;;;;;4910528;29;20228;-75
2023/04/19 13:50:03;;;;;;;;;;;15.60;44.80;;;;;;4930307;29;19926;-75
2023/04/19 13:52:29;;;;;;;;;;;15.20;44.60;;;;;;4923659;29;19921;-75
2023/04/19 13:54:54;;;;;;;;;;;15.00;45.80;;;;;;4941849;29;20327;-76
2023/04/19 13:57:20;;;;;;;;;;;14.90;46.30;;;;;;4946423;28;19914;-75
2023/04/19 13:59:46;;;;;;;;;;;14.80;46.70;;;;;;4926425;29;19915;-75
2023/04/19 14:02:11;;;;;;;;;;;15.20;47.70;;;;;;4918477;29;19915;-75
2023/04/19 14:04:37;;;;;;;;;;;15.40;45.60;;;;;;4916503;29;20275;-75
2023/04/19 14:07:02;;;;;;;;;;;15.40;44.80;;;;;;4915784;29;19914;-75
2023/04/19 14:09:28;;;;;;;;;;;15.10;45.00;;;;;;4947559;29;19951;-75
2023/04/19 14:11:54;;;;;;;;;;;14.90;45.40;;;;;;4930869;29;19998;-75
2023/04/19 14:14:20;;;;;;;;;;;15.10;44.80;;;;;;4915054;29;20248;-75
2023/04/19 14:16:45;;;;;;;;;;;14.80;46.00;;;;;;4944512;29;19981;-75
2023/04/19 14:19:14;;;;;;;;;;;14.60;45.50;;;;;;4927375;29;20276;-75